createdAt,value
2018-01-30T00:01:19.255Z,5.50
2018-01-30T00:03:47.528Z,5.83
2018-01-30T00:06:15.813Z,5.76
2018-01-30T00:08:44.092Z,5.80
2018-01-30T00:11:13.134Z,6.07
2018-01-30T00:13:41.402Z,5.95
2018-01-30T00:16:09.682Z,6.11
2018-01-30T00:18:38.712Z,5.94
2018-01-30T00:21:06.989Z,5.76
2018-01-30T00:23:35.281Z,5.82
2018-01-30T00:26:03.597Z,5.62
2018-01-30T00:28:31.880Z,5.59
2018-01-30T00:31:07.408Z,6.00
2018-01-30T00:33:36.608Z,5.88
2018-01-30T00:36:04.878Z,5.66
2018-01-30T00:38:33.911Z,5.81
2018-01-30T00:41:02.180Z,6.10
2018-01-30T00:43:31.233Z,6.43
2018-01-30T00:45:59.484Z,5.99
2018-01-30T00:48:27.764Z,5.91
2018-01-30T00:50:56.038Z,6.24
2018-01-30T00:53:24.311Z,6.58
2018-01-30T00:55:52.589Z,6.26
2018-01-30T00:58:20.860Z,5.77
2018-01-30T01:00:49.132Z,5.21
2018-01-30T01:03:17.408Z,5.54
2018-01-30T01:05:45.660Z,5.63
2018-01-30T01:08:13.931Z,5.09
2018-01-30T01:10:42.209Z,5.29
2018-01-30T01:13:11.405Z,5.12
2018-01-30T01:15:39.661Z,4.95
2018-01-30T01:18:08.715Z,5.03
2018-01-30T01:20:36.979Z,5.38
2018-01-30T01:23:26.837Z,5.35
2018-01-30T01:25:55.108Z,5.80
2018-01-30T01:28:23.396Z,6.06
2018-01-30T01:30:51.652Z,6.11
2018-01-30T01:33:27.154Z,6.37
2018-01-30T01:35:59.378Z,6.25
2018-01-30T01:38:49.214Z,6.00
2018-01-30T01:41:17.500Z,5.85
2018-01-30T01:43:45.783Z,5.84
2018-01-30T01:46:14.048Z,6.05
2018-01-30T01:48:42.324Z,5.66
2018-01-30T01:51:10.584Z,5.16
2018-01-30T01:53:38.864Z,6.03
2018-01-30T01:56:07.132Z,5.49
2018-01-30T01:58:35.412Z,5.76
2018-01-30T02:01:04.588Z,5.61
2018-01-30T02:03:34.829Z,5.77
2018-01-30T02:06:03.091Z,5.81
2018-01-30T02:08:32.142Z,5.38
2018-01-30T02:11:00.409Z,5.48
2018-01-30T02:13:28.693Z,5.32
2018-01-30T02:16:13.481Z,5.66
2018-01-30T02:18:41.770Z,5.38
2018-01-30T02:21:10.016Z,5.38
2018-01-30T02:23:49.468Z,5.58
2018-01-30T02:26:19.745Z,5.60
2018-01-30T02:28:48.022Z,5.41
2018-01-30T02:31:17.044Z,5.42
2018-01-30T02:33:45.326Z,5.78
2018-01-30T02:36:13.591Z,5.49
2018-01-30T02:38:42.643Z,5.62
2018-01-30T02:41:10.916Z,6.00
2018-01-30T02:43:39.188Z,4.97
2018-01-30T02:46:22.651Z,5.05
2018-01-30T02:48:50.924Z,5.02
2018-01-30T02:51:19.198Z,4.84
2018-01-30T02:53:48.240Z,5.49
2018-01-30T02:56:16.512Z,5.20
2018-01-30T02:58:51.120Z,5.30
2018-01-30T03:01:20.161Z,5.41
2018-01-30T03:03:49.362Z,5.61
2018-01-30T03:06:18.589Z,5.78
2018-01-30T03:08:47.620Z,5.90
2018-01-30T03:11:15.906Z,6.26
2018-01-30T03:14:02.300Z,5.21
2018-01-30T03:16:30.599Z,5.27
2018-01-30T03:18:58.872Z,4.88
2018-01-30T03:21:27.170Z,4.92
2018-01-30T03:23:55.456Z,5.52
2018-01-30T03:26:23.744Z,5.26
2018-01-30T03:28:52.019Z,4.93
2018-01-30T03:34:25.253Z,5.56
2018-01-30T03:37:00.995Z,5.62
2018-01-30T03:39:30.033Z,5.62
2018-01-30T03:41:58.314Z,5.68
2018-01-30T03:44:26.590Z,5.89
2018-01-30T03:47:08.443Z,5.47
2018-01-30T03:50:00.493Z,5.41
2018-01-30T03:52:28.773Z,5.03
2018-01-30T03:55:27.072Z,5.58
2018-01-30T03:57:55.356Z,5.76
2018-01-30T04:03:38.437Z,6.14
2018-01-30T04:06:09.773Z,6.13
2018-01-30T04:08:38.039Z,6.29
2018-01-30T04:11:06.340Z,6.46
2018-01-30T04:13:34.604Z,5.97
2018-01-30T04:16:03.654Z,6.30
2018-01-30T04:18:32.698Z,6.16
2018-01-30T04:21:00.976Z,5.88
2018-01-30T04:23:31.168Z,5.90
2018-01-30T04:26:16.985Z,5.91
2018-01-30T04:28:46.488Z,5.87
2018-01-30T04:31:19.070Z,5.68
2018-01-30T04:33:49.337Z,5.40
2018-01-30T04:39:33.216Z,5.23
2018-01-30T04:45:06.940Z,5.48
2018-01-30T04:47:35.228Z,5.66
2018-01-30T04:50:11.784Z,6.04
2018-01-30T04:52:40.839Z,5.94
2018-01-30T04:55:09.121Z,5.81
2018-01-30T05:00:41.260Z,5.48
2018-01-30T05:03:16.554Z,5.90
2018-01-30T05:11:45.976Z,6.14
2018-01-30T05:14:14.251Z,5.69
2018-01-30T05:17:08.573Z,5.61
2018-01-30T05:19:36.868Z,5.51
2018-01-30T05:22:05.177Z,5.77
2018-01-30T05:24:37.918Z,6.08
2018-01-30T05:27:07.132Z,5.94
2018-01-30T05:29:35.408Z,5.86
2018-01-30T05:38:05.612Z,5.87
2018-01-30T05:40:33.903Z,5.95
2018-01-30T05:43:02.180Z,6.13
2018-01-30T05:45:31.221Z,5.90
2018-01-30T05:47:59.491Z,5.71
2018-01-30T05:50:27.786Z,5.30
2018-01-30T05:52:56.075Z,5.41
2018-01-30T05:55:30.628Z,5.66
2018-01-30T05:57:58.913Z,5.56
2018-01-30T06:00:53.250Z,5.85
2018-01-30T06:03:21.512Z,5.71
2018-01-30T06:05:49.793Z,5.61
2018-01-30T06:08:24.283Z,5.88
2018-01-30T06:10:53.349Z,5.96
2018-01-30T06:13:21.670Z,5.66
2018-01-30T06:15:49.917Z,5.87
2018-01-30T06:18:18.206Z,5.86
2018-01-30T06:20:46.494Z,5.78
2018-01-30T06:23:14.785Z,5.90
2018-01-30T06:25:49.221Z,6.05
2018-01-30T06:28:39.469Z,6.13
2018-01-30T06:34:13.697Z,5.45
2018-01-30T06:36:41.979Z,5.34
2018-01-30T06:39:10.294Z,5.38
2018-01-30T06:41:38.563Z,4.93
2018-01-30T06:44:06.828Z,5.58
2018-01-30T06:46:35.114Z,5.34
2018-01-30T06:49:03.388Z,5.53
2018-01-30T06:51:31.682Z,5.45
2018-01-30T06:53:59.951Z,5.30
2018-01-30T06:56:37.056Z,5.45
2018-01-30T06:59:06.098Z,5.14
2018-01-30T07:01:41.850Z,5.09
2018-01-30T07:04:10.116Z,4.81
2018-01-30T07:06:39.168Z,5.25
2018-01-30T07:09:07.441Z,5.09
2018-01-30T07:11:35.733Z,5.33
2018-01-30T07:14:11.344Z,5.47
2018-01-30T07:16:40.585Z,5.05
2018-01-30T07:19:08.860Z,4.52
2018-01-30T07:21:37.908Z,5.01
2018-01-30T07:24:06.189Z,5.07
2018-01-30T07:26:34.481Z,5.38
2018-01-30T07:29:02.756Z,5.41
2018-01-30T07:31:31.948Z,5.76
2018-01-30T07:34:00.216Z,5.29
2018-01-30T07:36:28.489Z,5.06
2018-01-30T07:38:56.768Z,5.23
2018-01-30T07:41:25.055Z,5.86
2018-01-30T07:43:53.324Z,5.85
2018-01-30T07:46:21.617Z,5.54
2018-01-30T07:48:49.893Z,5.65
2018-01-30T07:51:18.164Z,6.09
2018-01-30T07:53:46.454Z,5.89
2018-01-30T07:56:14.724Z,5.26
2018-01-30T07:58:43.777Z,5.59
2018-01-30T08:01:12.040Z,5.53
2018-01-30T08:03:40.330Z,5.82
2018-01-30T08:06:08.595Z,5.96
2018-01-30T08:08:37.656Z,6.07
2018-01-30T08:11:05.932Z,6.06
2018-01-30T08:13:34.225Z,6.07
2018-01-30T08:16:02.501Z,5.98
2018-01-30T08:18:30.781Z,5.75
2018-01-30T08:20:59.052Z,5.45
2018-01-30T08:23:27.343Z,5.99
2018-01-30T08:25:55.620Z,5.99
2018-01-30T08:28:24.658Z,5.94
2018-01-30T08:30:52.923Z,5.94
2018-01-30T08:33:21.209Z,5.75
2018-01-30T08:35:49.489Z,5.55
2018-01-30T08:38:18.535Z,5.87
2018-01-30T08:40:47.346Z,6.00
2018-01-30T08:43:16.340Z,6.12
2018-01-30T08:45:44.609Z,6.13
2018-01-30T08:48:12.892Z,6.39
2018-01-30T08:50:41.164Z,6.40
2018-01-30T08:53:10.218Z,6.07
2018-01-30T08:55:38.493Z,6.15
2018-01-30T08:58:06.785Z,5.66
2018-01-30T09:00:35.057Z,6.05
2018-01-30T09:03:03.332Z,6.11
2018-01-30T09:05:32.381Z,6.09
2018-01-30T09:08:00.657Z,6.23
2018-01-30T09:10:28.958Z,5.77
2018-01-30T09:13:00.032Z,6.01
2018-01-30T09:15:28.345Z,5.74
2018-01-30T09:17:56.605Z,5.83
2018-01-30T09:20:28.016Z,5.86
2018-01-30T09:22:56.302Z,5.90
2018-01-30T09:25:25.344Z,5.91
2018-01-30T09:27:53.607Z,6.08
2018-01-30T09:30:21.884Z,5.40
2018-01-30T09:32:50.160Z,5.53
2018-01-30T09:35:19.216Z,5.66
2018-01-30T09:37:47.496Z,5.31
2018-01-30T09:40:16.557Z,5.46
2018-01-30T09:42:44.836Z,5.25
2018-01-30T09:45:13.133Z,5.05
2018-01-30T09:47:41.409Z,5.32
2018-01-30T09:50:09.700Z,5.27
2018-01-30T09:52:37.963Z,5.47
2018-01-30T09:55:06.276Z,5.47
2018-01-30T09:57:34.553Z,5.83
2018-01-30T10:00:02.956Z,5.98
2018-01-30T10:02:31.217Z,6.20
2018-01-30T10:04:59.508Z,5.56
2018-01-30T10:07:27.776Z,5.45
2018-01-30T10:09:56.047Z,5.74
2018-01-30T10:12:24.313Z,6.23
2018-01-30T10:14:53.349Z,6.41
2018-01-30T10:17:21.625Z,6.22
2018-01-30T10:19:50.688Z,6.33
2018-01-30T10:22:18.956Z,6.36
2018-01-30T10:24:47.227Z,5.89
2018-01-30T10:27:15.500Z,6.15
2018-01-30T10:29:43.777Z,6.02
2018-01-30T10:32:12.818Z,5.49
2018-01-30T10:34:41.093Z,5.81
2018-01-30T10:37:09.362Z,6.24
2018-01-30T10:39:38.409Z,6.15
2018-01-30T10:42:06.668Z,5.96
2018-01-30T10:44:35.721Z,6.57
2018-01-30T10:47:03.980Z,7.07
2018-01-30T10:49:32.258Z,6.99
2018-01-30T10:52:00.527Z,6.85
2018-01-30T10:54:29.603Z,7.01
2018-01-30T10:56:57.868Z,6.71
2018-01-30T10:59:26.160Z,7.10
2018-01-30T11:01:54.412Z,7.04
2018-01-30T11:04:22.709Z,7.31
2018-01-30T11:06:51.804Z,6.85
2018-01-30T11:09:20.835Z,7.18
2018-01-30T11:11:49.110Z,6.78
2018-01-30T11:14:17.372Z,6.89
2018-01-30T11:16:46.432Z,6.63
2018-01-30T11:19:14.705Z,6.20
2018-01-30T11:21:42.993Z,6.61
2018-01-30T11:24:11.284Z,6.74
2018-01-30T11:26:39.556Z,6.81
2018-01-30T11:29:07.825Z,7.03
2018-01-30T11:31:36.862Z,6.70
2018-01-30T11:34:05.164Z,6.83
2018-01-30T11:36:33.444Z,7.06
2018-01-30T11:39:01.722Z,6.77
2018-01-30T11:41:29.983Z,6.94
2018-01-30T11:43:59.015Z,7.33
2018-01-30T11:46:27.301Z,7.69
2018-01-30T11:48:55.580Z,7.65
2018-01-30T11:51:24.620Z,7.43
2018-01-30T11:53:52.883Z,6.87
2018-01-30T11:56:21.163Z,6.87
2018-01-30T11:58:49.428Z,6.77
2018-01-30T12:01:17.700Z,6.44
2018-01-30T12:03:45.964Z,6.63
2018-01-30T12:06:14.246Z,6.96
2018-01-30T12:08:45.507Z,7.20
2018-01-30T12:11:13.792Z,6.94
2018-01-30T12:13:42.065Z,6.89
2018-01-30T12:16:10.345Z,6.43
2018-01-30T12:18:38.599Z,6.60
2018-01-30T12:21:06.881Z,7.13
2018-01-30T12:23:35.153Z,7.12
2018-01-30T12:26:03.433Z,7.09
2018-01-30T12:28:31.700Z,7.00
2018-01-30T12:30:59.963Z,7.52
2018-01-30T12:33:29.055Z,7.81
2018-01-30T12:35:57.296Z,7.99
2018-01-30T12:38:25.567Z,7.82
2018-01-30T12:40:53.857Z,7.72
2018-01-30T12:43:22.123Z,7.70
2018-01-30T12:45:51.168Z,7.52
2018-01-30T12:48:20.204Z,8.15
2018-01-30T12:50:48.484Z,8.48
2018-01-30T12:53:16.757Z,8.77
2018-01-30T12:55:45.035Z,8.50
2018-01-30T12:58:13.309Z,8.42
2018-01-30T13:00:41.575Z,8.33
2018-01-30T13:03:10.611Z,7.90
2018-01-30T13:05:38.888Z,7.68
2018-01-30T13:08:07.169Z,7.48
2018-01-30T13:10:35.440Z,7.53
2018-01-30T13:13:04.476Z,7.82
2018-01-30T13:15:32.754Z,7.15
2018-01-30T13:18:01.026Z,7.15
2018-01-30T13:20:30.189Z,6.99
2018-01-30T13:22:58.447Z,6.49
2018-01-30T13:25:26.736Z,6.48
2018-01-30T13:27:55.029Z,7.01
2018-01-30T13:30:23.305Z,7.27
2018-01-30T13:32:51.572Z,7.29
2018-01-30T13:35:23.560Z,7.23
2018-01-30T13:37:52.583Z,7.30
2018-01-30T13:40:20.877Z,7.01
2018-01-30T13:42:49.148Z,7.24
2018-01-30T13:45:17.455Z,7.11
2018-01-30T13:47:46.496Z,7.25
2018-01-30T13:50:14.866Z,6.91
2018-01-30T13:52:43.156Z,6.96
2018-01-30T13:55:11.446Z,7.07
2018-01-30T13:57:39.735Z,6.83
2018-01-30T14:00:08.047Z,6.90
2018-01-30T14:02:36.328Z,7.15
2018-01-30T14:05:04.584Z,7.06
2018-01-30T14:07:32.890Z,7.19
2018-01-30T14:10:01.177Z,7.32
2018-01-30T14:12:29.464Z,7.83
2018-01-30T14:14:57.753Z,7.98
2018-01-30T14:17:26.044Z,7.39
2018-01-30T14:19:54.343Z,7.55
2018-01-30T14:22:22.636Z,7.34
2018-01-30T14:24:50.913Z,7.76
2018-01-30T14:27:19.231Z,7.94
2018-01-30T14:29:47.559Z,7.51
2018-01-30T14:32:15.848Z,7.60
2018-01-30T14:34:44.868Z,7.56
2018-01-30T14:37:13.162Z,7.41
2018-01-30T14:39:42.244Z,7.39
2018-01-30T14:42:10.556Z,8.12
2018-01-30T14:44:38.820Z,8.35
2018-01-30T14:47:07.108Z,8.57
2018-01-30T14:49:36.152Z,8.27
2018-01-30T14:52:04.469Z,8.43
2018-01-30T14:54:32.750Z,8.69
2018-01-30T14:57:01.041Z,8.15
2018-01-30T14:59:29.386Z,8.08
2018-01-30T15:01:57.680Z,8.41
2018-01-30T15:04:25.990Z,8.44
2018-01-30T15:06:54.331Z,7.77
2018-01-30T15:09:23.365Z,7.98
2018-01-30T15:11:51.673Z,8.01
2018-01-30T15:14:19.943Z,8.00
2018-01-30T15:16:48.215Z,7.96
2018-01-30T15:19:17.274Z,7.80
2018-01-30T15:21:45.595Z,7.83
2018-01-30T15:24:14.648Z,7.70
2018-01-30T15:26:42.932Z,7.93
2018-01-30T15:29:11.208Z,8.13
2018-01-30T15:31:39.494Z,8.10
2018-01-30T15:34:07.764Z,8.36
2018-01-30T15:36:37.865Z,8.52
2018-01-30T15:39:06.182Z,8.57
2018-01-30T15:41:34.493Z,8.62
2018-01-30T15:44:03.604Z,8.62
2018-01-30T15:46:31.906Z,8.58
2018-01-30T15:49:00.215Z,8.48
2018-01-30T15:51:28.510Z,8.52
2018-01-30T15:53:56.820Z,8.48
2018-01-30T15:56:25.925Z,8.31
2018-01-30T15:58:54.207Z,8.27
2018-01-30T16:01:22.505Z,8.22
2018-01-30T16:03:50.780Z,7.95
2018-01-30T16:06:19.075Z,7.87
2018-01-30T16:08:47.374Z,7.87
2018-01-30T16:11:15.671Z,7.82
2018-01-30T16:13:44.723Z,7.73
2018-01-30T16:16:13.280Z,7.69
2018-01-30T16:18:42.336Z,7.49
2018-01-30T16:21:10.636Z,7.48
2018-01-30T16:23:38.908Z,7.43
2018-01-30T16:26:07.256Z,7.06
2018-01-30T16:28:35.561Z,6.71
2018-01-30T16:31:30.680Z,6.36
2018-01-30T16:33:58.954Z,6.18
2018-01-30T16:36:44.353Z,5.88
2018-01-30T16:39:27.218Z,5.66
2018-01-30T16:42:25.216Z,5.76
2018-01-30T16:44:53.502Z,5.76
2018-01-30T16:47:38.481Z,5.59
2018-01-30T16:50:06.781Z,5.80
2018-01-30T16:52:35.085Z,5.85
2018-01-30T16:55:04.133Z,5.91
2018-01-30T16:57:32.417Z,5.77
2018-01-30T17:00:00.680Z,5.66
2018-01-30T17:02:29.724Z,5.79
2018-01-30T17:04:57.994Z,5.55
2018-01-30T17:07:26.301Z,5.67
2018-01-30T17:09:54.574Z,5.76
2018-01-30T17:12:44.605Z,5.86
2018-01-30T17:15:12.945Z,5.80
2018-01-30T17:17:43.925Z,5.71
2018-01-30T17:20:12.210Z,5.51
2018-01-30T17:22:40.484Z,5.58
2018-01-30T17:25:08.775Z,5.56
2018-01-30T17:27:37.057Z,5.77
2018-01-30T17:30:06.088Z,5.69
2018-01-30T17:32:34.405Z,5.52
2018-01-30T17:35:02.716Z,5.38
2018-01-30T17:37:30.993Z,5.28
2018-01-30T17:39:59.271Z,5.32
2018-01-30T17:42:46.096Z,5.61
2018-01-30T17:45:26.937Z,5.52
2018-01-30T17:47:55.246Z,5.45
2018-01-30T17:50:23.748Z,5.67
2018-01-30T17:52:52.972Z,5.56
2018-01-30T17:55:21.248Z,5.73
2018-01-30T17:57:49.532Z,5.91
2018-01-30T18:00:17.818Z,6.06
2018-01-30T18:02:46.116Z,6.18
2018-01-30T18:05:14.400Z,6.28
2018-01-30T18:08:15.114Z,6.37
2018-01-30T18:10:44.168Z,6.24
2018-01-30T18:13:12.498Z,6.33
2018-01-30T18:15:54.682Z,6.46
2018-01-30T18:18:32.638Z,6.47
2018-01-30T18:21:01.685Z,6.51
2018-01-30T18:23:29.972Z,6.51
2018-01-30T18:25:58.251Z,6.49
2018-01-30T18:28:26.549Z,6.22
2018-01-30T18:30:54.828Z,5.47
2018-01-30T18:33:23.113Z,5.29
2018-01-30T18:35:51.394Z,5.14
2018-01-30T18:38:19.696Z,5.06
2018-01-30T18:40:47.997Z,5.13
2018-01-30T18:43:16.278Z,5.13
2018-01-30T18:45:44.551Z,5.33
2018-01-30T18:48:12.828Z,5.39
2018-01-30T18:50:41.103Z,5.53
2018-01-30T18:53:10.145Z,5.46
2018-01-30T18:55:38.416Z,5.48
2018-01-30T18:58:06.703Z,5.73
2018-01-30T19:00:34.985Z,5.85
2018-01-30T19:03:04.024Z,5.58
2018-01-30T19:05:32.300Z,5.49
2018-01-30T19:08:00.585Z,5.35
2018-01-30T19:10:29.628Z,5.19
2018-01-30T19:12:57.913Z,5.05
2018-01-30T19:15:26.180Z,4.74
2018-01-30T19:17:54.457Z,4.68
2018-01-30T19:20:22.818Z,4.83
2018-01-30T19:22:51.091Z,4.65
2018-01-30T19:25:19.372Z,4.39
2018-01-30T19:27:47.644Z,4.57
2018-01-30T19:30:17.899Z,4.73
2018-01-30T19:32:46.176Z,4.33
2018-01-30T19:35:24.176Z,4.23
2018-01-30T19:37:52.440Z,4.58
2018-01-30T19:40:20.721Z,4.80
2018-01-30T19:42:50.960Z,4.64
2018-01-30T19:45:25.890Z,4.87
2018-01-30T19:47:58.052Z,5.15
2018-01-30T19:50:32.800Z,4.92
2018-01-30T19:53:01.834Z,5.22
2018-01-30T19:55:30.109Z,5.59
2018-01-30T19:58:02.212Z,5.79
2018-01-30T20:00:54.263Z,6.09
2018-01-30T20:03:22.535Z,6.11
2018-01-30T20:05:50.826Z,6.25
2018-01-30T20:08:40.729Z,6.35
2018-01-30T20:11:19.345Z,6.34
2018-01-30T20:13:47.616Z,6.30
2018-01-30T20:16:17.581Z,6.27
2018-01-30T20:18:45.854Z,6.21
2018-01-30T20:21:14.148Z,6.02
2018-01-30T20:23:42.430Z,5.89
2018-01-30T20:26:10.712Z,5.75
2018-01-30T20:28:38.995Z,5.70
2018-01-30T20:31:07.285Z,5.56
2018-01-30T20:33:36.336Z,5.01
2018-01-30T20:36:09.678Z,5.10
2018-01-30T20:38:37.972Z,4.96
2018-01-30T20:41:07.004Z,5.09
2018-01-30T20:43:35.296Z,4.95
2018-01-30T20:46:03.570Z,5.18
2018-01-30T20:48:32.616Z,5.13
2018-01-30T20:51:00.889Z,4.88
2018-01-30T20:53:29.171Z,4.89
2018-01-30T20:56:27.448Z,4.51
2018-01-30T20:58:56.524Z,4.17
2018-01-30T21:01:24.777Z,4.21
2018-01-30T21:04:24.036Z,4.09
2018-01-30T21:06:52.311Z,4.24
2018-01-30T21:09:20.589Z,4.12
2018-01-30T21:11:48.861Z,4.08
2018-01-30T21:14:37.661Z,4.55
2018-01-30T21:17:05.938Z,4.46
2018-01-30T21:19:34.257Z,4.41
2018-01-30T21:22:02.528Z,4.57
2018-01-30T21:24:30.811Z,4.77
2018-01-30T21:30:01.338Z,4.69
2018-01-30T21:32:29.600Z,4.73
2018-01-30T21:34:58.640Z,4.45
2018-01-30T21:37:44.047Z,4.51
2018-01-30T21:40:25.348Z,4.42
2018-01-30T21:42:53.609Z,4.56
2018-01-30T21:45:32.212Z,4.44
2018-01-30T21:48:01.243Z,4.32
2018-01-30T21:50:40.260Z,4.44
2018-01-30T21:53:09.304Z,4.75
2018-01-30T21:55:50.832Z,5.13
2018-01-30T21:58:32.010Z,5.04
2018-01-30T22:01:13.813Z,5.06
2018-01-30T22:04:12.729Z,5.07
2018-01-30T22:06:40.989Z,5.17
2018-01-30T22:09:09.270Z,5.10
2018-01-30T22:11:49.632Z,5.45
2018-01-30T22:14:20.635Z,5.67
2018-01-30T22:16:48.919Z,6.04
2018-01-30T22:19:17.183Z,6.43
2018-01-30T22:21:45.473Z,6.56
2018-01-30T22:24:21.928Z,6.63
2018-01-30T22:26:50.192Z,6.24
2018-01-30T22:32:39.485Z,6.21
2018-01-30T22:35:08.580Z,6.02
2018-01-30T22:37:40.935Z,5.86
2018-01-30T22:40:13.979Z,5.53
2018-01-30T22:42:42.243Z,5.25
2018-01-30T22:45:10.544Z,5.23
